createdAt,value
2023-01-13T00:02:13.109Z,98630.91
2023-01-13T00:04:41.091Z,98633.94
2023-01-13T00:07:08.968Z,98637.94
2023-01-13T00:09:36.760Z,98626.28
2023-01-13T00:12:06.747Z,98616.38
2023-01-13T00:14:36.345Z,98613.16
2023-01-13T00:17:04.759Z,98619.81
2023-01-13T00:19:34.367Z,98610.84
2023-01-13T00:22:06.632Z,98602.28
2023-01-13T00:24:34.638Z,98605.19
2023-01-13T00:27:02.455Z,98616.38
2023-01-13T00:29:30.333Z,98606.50
2023-01-13T00:32:01.770Z,98600.06
2023-01-13T00:34:29.807Z,98598.75
2023-01-13T00:36:58.203Z,98598.41
2023-01-13T00:39:26.092Z,98598.81
2023-01-13T00:42:16.786Z,98599.44
2023-01-13T00:44:44.613Z,98606.09
2023-01-13T00:47:12.491Z,98612.66
2023-01-13T00:49:40.719Z,98606.59
2023-01-13T00:52:08.615Z,98608.63
2023-01-13T00:54:39.340Z,98607.31
2023-01-13T00:57:07.187Z,98598.00
2023-01-13T00:59:34.983Z,98603.28
2023-01-13T01:04:56.668Z,98604.28
2023-01-13T01:07:24.521Z,98602.56
2023-01-13T01:09:52.658Z,98605.41
2023-01-13T01:12:21.375Z,98593.88
2023-01-13T01:14:49.227Z,98585.94
2023-01-13T01:17:17.622Z,98596.81
2023-01-13T01:19:47.337Z,98604.50
2023-01-13T01:22:16.662Z,98595.09
2023-01-13T01:24:44.510Z,98594.69
2023-01-13T01:27:15.651Z,98594.59
2023-01-13T01:29:43.467Z,98599.44
2023-01-13T01:32:13.482Z,98605.41
2023-01-13T01:34:41.435Z,98598.91
2023-01-13T01:37:09.247Z,98593.47
2023-01-13T01:39:38.697Z,98598.13
2023-01-13T01:42:25.064Z,98599.13
2023-01-13T01:44:59.109Z,98596.41
2023-01-13T01:47:29.044Z,98577.16
2023-01-13T01:49:58.646Z,98589.84
2023-01-13T01:52:33.873Z,98586.63
2023-01-13T01:55:09.640Z,98586.91
2023-01-13T01:57:46.533Z,98579.16
2023-01-13T02:00:16.832Z,98582.47
2023-01-13T02:02:48.384Z,98571.81
2023-01-13T02:05:18.768Z,98578.34
2023-01-13T02:07:49.790Z,98575.03
2023-01-13T02:10:21.681Z,98572.59
2023-01-13T02:12:51.097Z,98563.81
2023-01-13T02:16:22.703Z,98574.81
2023-01-13T02:18:53.770Z,98575.81
2023-01-13T02:24:54.482Z,98587.59
2023-01-13T02:27:46.701Z,98572.47
2023-01-13T02:30:51.082Z,98560.69
2023-01-13T02:33:57.027Z,98559.19
2023-01-13T02:36:47.228Z,98557.28
2023-01-13T02:39:27.982Z,98547.31
2023-01-13T02:42:23.784Z,98550.22
2023-01-13T02:44:58.765Z,98558.47
2023-01-13T02:47:28.947Z,98540.34
2023-01-13T02:50:05.586Z,98545.91
2023-01-13T02:52:41.330Z,98542.78
2023-01-13T02:55:17.223Z,98542.16
2023-01-13T02:57:46.715Z,98540.47
2023-01-13T03:00:17.784Z,98537.94
2023-01-13T03:02:48.171Z,98533.50
2023-01-13T03:05:17.735Z,98519.09
2023-01-13T03:07:53.397Z,98525.94
2023-01-13T03:10:44.808Z,98533.91
2023-01-13T03:13:24.783Z,98528.03
2023-01-13T03:15:52.692Z,98530.88
2023-01-13T03:18:46.199Z,98541.97
2023-01-13T03:21:33.674Z,98549.03
2023-01-13T03:24:13.971Z,98529.47
2023-01-13T03:27:18.674Z,98538.53
2023-01-13T03:29:55.748Z,98538.16
2023-01-13T03:32:28.654Z,98524.91
2023-01-13T03:35:16.021Z,98530.97
2023-01-13T03:38:11.141Z,98524.72
2023-01-13T03:41:01.789Z,98519.19
2023-01-13T03:43:56.387Z,98523.22
2023-01-13T03:46:35.254Z,98520.38
2023-01-13T03:49:07.716Z,98522.59
2023-01-13T03:51:39.974Z,98516.56
2023-01-13T03:54:11.963Z,98513.16
2023-01-13T03:56:51.841Z,98509.13
2023-01-13T03:59:24.711Z,98504.59
2023-01-13T04:02:21.773Z,98501.22
2023-01-13T04:05:04.782Z,98501.22
2023-01-13T04:07:51.168Z,98491.97
2023-01-13T04:16:53.760Z,98491.06
2023-01-13T04:19:21.851Z,98484.41
2023-01-13T04:21:49.767Z,98478.78
2023-01-13T04:24:18.712Z,98479.97
2023-01-13T04:26:47.303Z,98466.84
2023-01-13T04:29:15.795Z,98478.34
2023-01-13T04:31:44.700Z,98474.22
2023-01-13T04:34:13.482Z,98486.09
2023-01-13T04:36:43.605Z,98477.13
2023-01-13T04:39:11.437Z,98480.94
2023-01-13T04:41:58.720Z,98484.56
2023-01-13T04:44:27.441Z,98478.22
2023-01-13T04:46:55.344Z,98482.47
2023-01-13T04:49:23.861Z,98474.41
2023-01-13T04:51:51.756Z,98486.69
2023-01-13T04:54:20.737Z,98474.41
2023-01-13T04:56:48.688Z,98476.44
2023-01-13T04:59:16.498Z,98481.19
2023-01-13T05:01:45.582Z,98477.09
2023-01-13T05:04:15.507Z,98473.06
2023-01-13T05:06:43.342Z,98476.22
2023-01-13T05:09:16.691Z,98476.19
2023-01-13T05:12:04.432Z,98475.88
2023-01-13T05:14:51.255Z,98473.97
2023-01-13T05:17:23.184Z,98474.69
2023-01-13T05:19:52.871Z,98473.97
2023-01-13T05:22:39.586Z,98479.22
2023-01-13T05:25:26.864Z,98482.03
2023-01-13T05:28:19.835Z,98467.44
2023-01-13T05:30:49.655Z,98470.13
2023-01-13T05:33:20.656Z,98468.28
2023-01-13T05:35:49.725Z,98465.16
2023-01-13T05:38:18.607Z,98463.13
2023-01-13T05:41:06.699Z,98464.66
2023-01-13T05:43:35.437Z,98471.03
2023-01-13T05:46:09.792Z,98470.22
2023-01-13T05:48:40.291Z,98478.78
2023-01-13T05:51:11.777Z,98474.50
2023-01-13T05:53:41.628Z,98455.38
2023-01-13T05:56:09.711Z,98459.41
2023-01-13T05:58:37.815Z,98448.69
2023-01-13T06:01:08.598Z,98444.88
2023-01-13T06:03:37.872Z,98454.16
2023-01-13T06:06:08.569Z,98450.16
2023-01-13T06:08:39.266Z,98444.28
2023-01-13T06:11:08.699Z,98442.66
2023-01-13T06:13:36.520Z,98436.81
2023-01-13T06:16:04.675Z,98442.03
2023-01-13T06:18:32.812Z,98464.25
2023-01-13T06:21:00.825Z,98452.63
2023-01-13T06:23:29.251Z,98444.66
2023-01-13T06:26:03.020Z,98449.03
2023-01-13T06:28:31.733Z,98444.84
2023-01-13T06:31:03.971Z,98448.81
2023-01-13T06:33:50.036Z,98450.50
2023-01-13T06:36:24.449Z,98440.19
2023-01-13T06:38:56.813Z,98426.25
2023-01-13T06:41:48.740Z,98422.88
2023-01-13T06:44:18.625Z,98421.25
2023-01-13T06:46:47.880Z,98419.00
2023-01-13T06:49:17.705Z,98429.31
2023-01-13T06:51:46.505Z,98425.88
2023-01-13T06:54:14.727Z,98432.53
2023-01-13T06:56:42.628Z,98425.44
2023-01-13T06:59:10.472Z,98433.94
2023-01-13T07:01:38.964Z,98428.06
2023-01-13T07:04:06.821Z,98439.50
2023-01-13T07:06:34.715Z,98441.31
2023-01-13T07:09:03.067Z,98453.81
2023-01-13T07:11:31.475Z,98440.94
2023-01-13T07:14:19.755Z,98445.72
2023-01-13T07:16:47.593Z,98452.16
2023-01-13T07:19:15.914Z,98447.31
2023-01-13T07:21:44.689Z,98462.22
2023-01-13T07:24:13.370Z,98459.34
2023-01-13T07:26:41.663Z,98465.84
2023-01-13T07:29:10.304Z,98471.16
2023-01-13T07:31:40.762Z,98464.41
2023-01-13T07:34:09.148Z,98463.38
2023-01-13T07:36:37.703Z,98457.69
2023-01-13T07:39:05.547Z,98462.56
2023-01-13T07:41:52.746Z,98459.34
2023-01-13T07:44:21.467Z,98479.38
2023-01-13T07:46:49.340Z,98471.59
2023-01-13T07:52:09.721Z,98470.06
2023-01-13T07:54:41.192Z,98477.97
2023-01-13T07:57:09.425Z,98471.97
2023-01-13T07:59:40.540Z,98462.38
2023-01-13T08:02:13.821Z,98479.19
2023-01-13T08:04:41.839Z,98481.59
2023-01-13T08:07:11.710Z,98486.84
2023-01-13T08:09:40.880Z,98498.97
2023-01-13T08:12:41.091Z,98499.59
2023-01-13T08:20:09.675Z,98479.03
2023-01-13T08:22:38.343Z,98447.19
2023-01-13T08:28:02.440Z,98462.16
2023-01-13T08:30:30.575Z,98452.56
2023-01-13T08:33:01.344Z,98442.31
2023-01-13T08:35:29.163Z,98455.97
2023-01-13T08:37:57.154Z,98458.84
2023-01-13T08:40:26.025Z,98458.38
2023-01-13T08:42:55.836Z,98453.72
2023-01-13T08:45:23.653Z,98456.03
2023-01-13T08:47:51.854Z,98447.47
2023-01-13T08:50:19.859Z,98457.41
2023-01-13T08:52:47.751Z,98453.72
2023-01-13T08:55:16.842Z,98449.44
2023-01-13T08:57:46.318Z,98458.13
2023-01-13T09:00:14.813Z,98457.47
2023-01-13T09:02:44.852Z,98455.09
2023-01-13T09:05:12.795Z,98461.84
2023-01-13T09:07:42.815Z,98450.00
2023-01-13T09:10:10.930Z,98450.34
2023-01-13T09:12:58.023Z,98452.44
2023-01-13T09:15:26.063Z,98467.25
2023-01-13T09:17:54.031Z,98460.34
2023-01-13T09:20:25.719Z,98451.53
2023-01-13T09:22:53.603Z,98453.31
2023-01-13T09:25:21.465Z,98456.06
2023-01-13T09:27:49.740Z,98469.69
2023-01-13T09:30:19.420Z,98459.59
2023-01-13T09:32:48.999Z,98460.28
2023-01-13T09:35:17.500Z,98465.41
2023-01-13T09:37:45.382Z,98466.66
2023-01-13T09:40:18.666Z,98459.16
2023-01-13T09:43:16.285Z,98449.84
2023-01-13T09:45:53.832Z,98455.66
2023-01-13T09:48:51.785Z,98460.59
2023-01-13T09:51:29.915Z,98441.31
2023-01-13T09:54:05.278Z,98436.03
2023-01-13T09:56:33.414Z,98424.44
2023-01-13T09:59:01.301Z,98431.53
2023-01-13T10:01:46.445Z,98435.88
2023-01-13T10:04:15.929Z,98437.16
2023-01-13T10:06:49.897Z,98421.88
2023-01-13T10:09:50.648Z,98415.94
2023-01-13T10:12:42.304Z,98412.09
2023-01-13T10:15:20.643Z,98409.03
2023-01-13T10:18:08.911Z,98414.97
2023-01-13T10:21:07.909Z,98398.19
2023-01-13T10:24:05.917Z,98394.97
2023-01-13T10:27:02.146Z,98408.66
2023-01-13T10:29:31.891Z,98400.44
2023-01-13T10:32:00.632Z,98411.88
2023-01-13T10:34:30.739Z,98411.53
2023-01-13T10:37:09.155Z,98408.59
2023-01-13T10:39:46.081Z,98407.13
2023-01-13T10:42:19.908Z,98416.16
2023-01-13T10:44:49.768Z,98400.53
2023-01-13T10:47:36.155Z,98415.03
2023-01-13T10:50:13.154Z,98411.13
2023-01-13T10:53:02.395Z,98413.06
2023-01-13T10:55:33.780Z,98405.16
2023-01-13T10:58:24.827Z,98406.59
2023-01-13T11:01:03.814Z,98401.13
2023-01-13T11:03:43.476Z,98387.44
2023-01-13T11:06:30.879Z,98388.38
2023-01-13T11:08:59.193Z,98394.66
2023-01-13T11:11:46.030Z,98402.50
2023-01-13T11:14:42.815Z,98408.78
2023-01-13T11:17:31.760Z,98413.00
2023-01-13T11:20:13.382Z,98412.97
2023-01-13T11:22:50.956Z,98423.41
2023-01-13T11:25:42.143Z,98426.22
2023-01-13T11:28:35.717Z,98429.31
2023-01-13T11:31:30.252Z,98425.25
2023-01-13T11:34:19.856Z,98415.31
2023-01-13T11:36:51.798Z,98408.78
2023-01-13T11:39:40.849Z,98418.47
2023-01-13T11:42:20.877Z,98417.84
2023-01-13T11:45:18.632Z,98425.56
2023-01-13T11:47:49.621Z,98414.00
2023-01-13T11:50:31.805Z,98411.41
2023-01-13T11:53:06.381Z,98413.84
2023-01-13T11:56:14.343Z,98400.97
2023-01-13T11:58:50.942Z,98401.63
2023-01-13T12:01:42.019Z,98382.97
2023-01-13T12:04:28.282Z,98390.22
2023-01-13T12:07:20.216Z,98381.69
2023-01-13T12:10:26.150Z,98379.44
2023-01-13T12:13:21.768Z,98368.00
2023-01-13T12:15:52.771Z,98366.25
2023-01-13T12:18:34.766Z,98367.03
2023-01-13T12:21:28.983Z,98345.78
2023-01-13T12:24:25.670Z,98338.88
2023-01-13T12:27:01.908Z,98343.84
2023-01-13T12:32:49.830Z,98342.09
2023-01-13T12:35:28.175Z,98342.09
2023-01-13T12:38:10.798Z,98343.50
2023-01-13T12:40:51.623Z,98334.81
2023-01-13T12:43:41.739Z,98332.19
2023-01-13T12:46:19.071Z,98334.91
2023-01-13T12:49:02.851Z,98336.66
2023-01-13T12:51:47.201Z,98336.19
2023-01-13T12:54:31.779Z,98342.13
2023-01-13T12:57:01.081Z,98337.28
2023-01-13T12:59:28.876Z,98329.19
2023-01-13T13:02:09.283Z,98330.94
2023-01-13T13:04:57.025Z,98330.25
2023-01-13T13:07:31.042Z,98337.28
2023-01-13T13:10:13.829Z,98329.47
2023-01-13T13:13:02.099Z,98321.75
2023-01-13T13:15:35.677Z,98327.03
2023-01-13T13:18:21.852Z,98322.25
2023-01-13T13:21:05.500Z,98325.69
2023-01-13T13:23:33.910Z,98326.34
2023-01-13T13:26:17.059Z,98321.50
2023-01-13T13:29:16.129Z,98325.00
2023-01-13T13:31:53.229Z,98340.66
2023-01-13T13:38:12.104Z,98351.63
2023-01-13T13:41:01.409Z,98348.34
2023-01-13T13:43:52.724Z,98358.88
2023-01-13T13:46:43.207Z,98376.09
2023-01-13T13:52:14.931Z,98369.63
2023-01-13T13:54:47.677Z,98388.72
2023-01-13T13:57:33.107Z,98384.19
2023-01-13T14:00:07.902Z,98403.53
2023-01-13T14:02:39.630Z,98411.44
2023-01-13T14:05:19.892Z,98395.53
2023-01-13T14:07:51.796Z,98397.31
2023-01-13T14:10:28.609Z,98376.25
2023-01-13T14:13:03.721Z,98378.66
2023-01-13T14:15:35.972Z,98380.16
2023-01-13T14:18:14.965Z,98381.91
2023-01-13T14:20:55.145Z,98371.78
2023-01-13T14:23:32.691Z,98374.38
2023-01-13T14:26:08.596Z,98376.94
2023-01-13T14:28:41.868Z,98383.41
2023-01-13T14:31:10.900Z,98381.78
2023-01-13T14:33:46.215Z,98388.34
2023-01-13T14:36:18.021Z,98375.97
2023-01-13T14:42:04.765Z,98366.78
2023-01-13T14:44:36.651Z,98376.63
2023-01-13T14:50:22.674Z,98377.22
2023-01-13T14:52:57.066Z,98370.16
2023-01-13T14:55:37.778Z,98358.56
2023-01-13T14:58:28.550Z,98355.53
2023-01-13T15:04:37.463Z,98356.88
2023-01-13T15:07:05.746Z,98354.97
2023-01-13T15:09:40.472Z,98361.72
2023-01-13T15:12:23.127Z,98360.63
2023-01-13T15:14:55.732Z,98338.41
2023-01-13T15:17:23.562Z,98368.34
2023-01-13T15:19:53.456Z,98371.25
2023-01-13T15:22:21.460Z,98380.56
2023-01-13T15:24:50.401Z,98376.22
2023-01-13T15:27:25.289Z,98374.97
2023-01-13T15:29:53.465Z,98371.41
2023-01-13T15:32:22.184Z,98390.56
2023-01-13T15:34:53.721Z,98383.13
2023-01-13T15:37:21.547Z,98386.69
2023-01-13T15:39:50.748Z,98395.69
2023-01-13T15:42:37.368Z,98400.81
2023-01-13T15:45:24.944Z,98406.28
2023-01-13T15:47:52.763Z,98393.28
2023-01-13T15:50:20.909Z,98403.06
2023-01-13T15:55:47.905Z,98415.78
2023-01-13T15:58:20.612Z,98421.38
2023-01-13T16:03:45.764Z,98418.50
2023-01-13T16:06:20.360Z,98404.50
2023-01-13T16:08:48.782Z,98412.41
2023-01-13T16:11:16.658Z,98416.59
2023-01-13T16:13:44.529Z,98442.31
2023-01-13T16:16:23.956Z,98451.00
2023-01-13T16:18:53.402Z,98452.28
2023-01-13T16:21:22.354Z,98522.41
2023-01-13T16:23:52.715Z,98589.97
2023-01-13T16:26:29.262Z,98587.81
2023-01-13T16:29:01.726Z,98588.44
2023-01-13T16:31:32.980Z,98598.56
2023-01-13T16:34:02.544Z,98598.03
2023-01-13T16:36:34.939Z,98607.25
2023-01-13T16:39:03.350Z,98610.09
2023-01-13T16:41:31.168Z,98622.78
2023-01-13T16:44:07.832Z,98617.16
2023-01-13T16:46:35.691Z,98622.44
2023-01-13T16:49:05.421Z,98633.34
2023-01-13T16:51:34.044Z,98635.31
2023-01-13T16:54:05.872Z,98631.69
2023-01-13T16:56:36.799Z,98627.31
2023-01-13T16:59:07.669Z,98611.94
2023-01-13T17:01:39.986Z,98622.19
2023-01-13T17:04:16.054Z,98617.81
2023-01-13T17:06:58.872Z,98614.69
2023-01-13T17:09:29.009Z,98615.22
2023-01-13T17:11:57.562Z,98626.25
2023-01-13T17:14:26.800Z,98644.56
2023-01-13T17:16:58.207Z,98652.22
2023-01-13T17:19:26.127Z,98662.00
2023-01-13T17:22:19.975Z,98664.41
2023-01-13T17:24:48.857Z,98674.34
2023-01-13T17:27:18.559Z,98679.41
2023-01-13T17:29:47.840Z,98689.81
2023-01-13T17:32:21.291Z,98698.81
2023-01-13T17:37:41.982Z,98694.72
2023-01-13T17:40:13.634Z,98727.78
2023-01-13T17:42:41.847Z,98736.38
2023-01-13T17:45:12.022Z,98748.38
2023-01-13T17:47:39.868Z,98748.56
2023-01-13T17:50:09.299Z,98762.84
2023-01-13T17:52:37.573Z,98754.34
2023-01-13T17:55:05.696Z,98759.28
2023-01-13T17:57:37.151Z,98753.41
2023-01-13T18:00:05.788Z,98762.19
2023-01-13T18:02:59.519Z,98767.03
2023-01-13T18:05:27.929Z,98769.19
2023-01-13T18:07:56.466Z,98774.75
2023-01-13T18:10:24.532Z,98782.91
2023-01-13T18:12:52.379Z,98795.66
2023-01-13T18:15:24.864Z,98790.09
2023-01-13T18:18:17.879Z,98795.88
2023-01-13T18:21:04.842Z,98802.84
2023-01-13T18:23:51.595Z,98803.13
2023-01-13T18:26:40.829Z,98814.84
2023-01-13T18:29:08.709Z,98813.44
2023-01-13T18:31:36.512Z,98816.03
2023-01-13T18:34:04.888Z,98827.88
2023-01-13T18:36:32.683Z,98822.53
2023-01-13T18:39:00.597Z,98830.00
2023-01-13T18:41:46.858Z,98835.00
2023-01-13T18:44:14.998Z,98832.88
2023-01-13T18:46:44.879Z,98841.06
2023-01-13T18:49:13.101Z,98839.69
2023-01-13T18:52:07.912Z,98832.97
2023-01-13T18:54:35.913Z,98823.47
2023-01-13T19:05:35.595Z,98829.53
2023-01-13T19:08:08.899Z,98843.44
2023-01-13T19:10:37.571Z,98837.78
2023-01-13T19:13:05.398Z,98834.00
2023-01-13T19:15:36.637Z,98843.06
2023-01-13T19:18:04.546Z,98847.28
2023-01-13T19:20:32.465Z,98861.59
2023-01-13T19:23:00.795Z,98867.13
2023-01-13T19:25:28.597Z,98872.19
2023-01-13T19:27:56.504Z,98869.03
2023-01-13T19:30:24.519Z,98869.28
2023-01-13T19:32:52.443Z,98874.72
2023-01-13T19:35:20.308Z,98878.47
2023-01-13T19:37:48.824Z,98878.75
2023-01-13T19:40:16.790Z,98874.56
2023-01-13T19:43:03.353Z,98873.03
2023-01-13T19:45:36.353Z,98877.94
2023-01-13T19:48:05.983Z,98878.34
2023-01-13T19:50:38.797Z,98879.44
2023-01-13T19:53:07.252Z,98882.47
2023-01-13T19:55:35.292Z,98876.03
2023-01-13T19:58:03.957Z,98884.78
2023-01-13T20:00:32.831Z,98886.25
2023-01-13T20:03:03.533Z,98887.78
2023-01-13T20:05:33.034Z,98891.47
2023-01-13T20:08:01.516Z,98884.19
2023-01-13T20:10:30.589Z,98892.34
2023-01-13T20:12:59.834Z,98888.41
2023-01-13T20:15:28.535Z,98898.63
2023-01-13T20:17:57.928Z,98895.81
2023-01-13T20:20:28.140Z,98897.88
2023-01-13T20:22:58.062Z,98901.34
2023-01-13T20:25:29.016Z,98901.63
2023-01-13T20:28:02.168Z,98900.19
2023-01-13T20:33:24.871Z,98901.38
2023-01-13T20:35:58.704Z,98895.44
2023-01-13T20:38:26.909Z,98896.75
2023-01-13T20:41:00.131Z,98893.81
2023-01-13T20:43:29.929Z,98904.78
2023-01-13T20:45:57.791Z,98908.81
2023-01-13T20:48:25.619Z,98901.09
2023-01-13T20:50:54.302Z,98896.47
2023-01-13T20:53:22.164Z,98906.78
2023-01-13T20:55:53.947Z,98905.38
2023-01-13T20:58:23.859Z,98901.34
2023-01-13T21:00:51.762Z,98903.53
2023-01-13T21:03:19.741Z,98913.81
2023-01-13T21:05:48.533Z,98908.31
2023-01-13T21:08:17.858Z,98916.69
2023-01-13T21:10:45.817Z,98917.19
2023-01-13T21:13:57.727Z,98907.34
2023-01-13T21:16:25.829Z,98915.47
2023-01-13T21:19:10.740Z,98921.06
2023-01-13T21:21:38.638Z,98922.88
2023-01-13T21:24:06.689Z,98918.13
2023-01-13T21:26:35.886Z,98919.78
2023-01-13T21:29:04.546Z,98912.84
2023-01-13T21:31:32.822Z,98925.41
2023-01-13T21:34:01.815Z,98931.06
2023-01-13T21:36:31.677Z,98925.06
2023-01-13T21:39:01.814Z,98928.16
2023-01-13T21:41:59.669Z,98921.06
2023-01-13T21:44:48.907Z,98928.16
2023-01-13T21:47:37.171Z,98938.69
2023-01-13T21:50:13.082Z,98942.31
2023-01-13T21:52:44.391Z,98942.00
2023-01-13T21:55:20.953Z,98948.78
2023-01-13T21:57:57.578Z,98936.06
2023-01-13T22:03:23.984Z,98941.41
2023-01-13T22:05:55.934Z,98938.34
2023-01-13T22:11:20.876Z,98949.50
2023-01-13T22:14:14.270Z,98939.19
2023-01-13T22:16:50.058Z,98931.72
2023-01-13T22:19:18.777Z,98925.09
2023-01-13T22:21:46.643Z,98921.53
2023-01-13T22:24:15.837Z,98909.44
2023-01-13T22:26:44.614Z,98916.09
2023-01-13T22:29:12.647Z,98926.69
2023-01-13T22:31:40.487Z,98930.50
2023-01-13T22:34:11.889Z,98933.66
2023-01-13T22:36:40.634Z,98945.66
2023-01-13T22:39:11.500Z,98945.28
2023-01-13T22:41:39.610Z,98938.50
2023-01-13T22:44:07.419Z,98939.28
2023-01-13T22:46:35.986Z,98939.22
2023-01-13T22:49:05.554Z,98934.94
2023-01-13T22:51:33.363Z,98939.03
2023-01-13T22:54:04.849Z,98956.19
2023-01-13T22:56:37.208Z,98953.28
2023-01-13T22:59:32.900Z,98952.72
2023-01-13T23:02:01.992Z,98956.19
2023-01-13T23:04:29.932Z,98967.69
2023-01-13T23:06:59.949Z,98963.97
2023-01-13T23:09:29.967Z,98959.56
2023-01-13T23:11:58.919Z,98970.94
2023-01-13T23:14:27.155Z,98964.16
2023-01-13T23:16:55.144Z,98960.25
2023-01-13T23:19:22.967Z,98969.72
2023-01-13T23:21:52.851Z,98965.88
2023-01-13T23:24:46.048Z,98980.84
2023-01-13T23:27:14.163Z,98975.41
2023-01-13T23:29:42.099Z,98983.00
2023-01-13T23:32:10.063Z,98976.22
2023-01-13T23:34:39.951Z,98980.63
2023-01-13T23:37:08.692Z,98984.16
2023-01-13T23:39:36.665Z,98986.56
2023-01-13T23:42:04.477Z,98992.06
2023-01-13T23:44:32.290Z,98995.53
2023-01-13T23:47:25.615Z,98998.97
2023-01-13T23:49:53.442Z,98992.91
2023-01-13T23:52:21.301Z,98982.41
2023-01-13T23:54:49.934Z,99002.00
2023-01-13T23:57:17.733Z,98999.81
2023-01-13T23:59:45.709Z,99006.47
